createdAt,value
2019-05-28T00:00:11.318Z,3.08
2019-05-28T00:02:41.166Z,2.42
2019-05-28T00:05:10.832Z,3.02
2019-05-28T00:07:40.483Z,3.05
2019-05-28T00:10:10.162Z,2.62
2019-05-28T00:12:39.544Z,3.17
2019-05-28T00:15:09.205Z,3.20
2019-05-28T00:17:38.807Z,3.10
2019-05-28T00:20:09.001Z,2.90
2019-05-28T00:22:38.318Z,2.90
2019-05-28T00:25:08.362Z,3.12
2019-05-28T00:27:38.069Z,3.58
2019-05-28T00:30:19.087Z,3.30
2019-05-28T00:32:39.264Z,3.80
2019-05-28T00:35:09.004Z,5.35
2019-05-28T00:37:38.362Z,5.25
2019-05-28T00:40:08.034Z,4.85
2019-05-28T00:42:37.511Z,4.25
2019-05-28T00:45:09.201Z,4.00
2019-05-28T00:47:38.534Z,3.35
2019-05-28T00:50:09.979Z,3.62
2019-05-28T00:52:39.479Z,3.70
2019-05-28T00:55:09.365Z,3.70
2019-05-28T00:57:44.734Z,3.30
2019-05-28T01:00:14.810Z,3.50
2019-05-28T01:02:44.207Z,3.40
2019-05-28T01:05:14.051Z,3.15
2019-05-28T01:07:43.376Z,3.17
2019-05-28T01:10:12.778Z,3.42
2019-05-28T01:12:42.113Z,3.20
2019-05-28T01:15:11.749Z,3.15
2019-05-28T01:17:41.404Z,3.10
2019-05-28T01:20:11.619Z,3.33
2019-05-28T01:22:41.225Z,3.47
2019-05-28T01:25:10.625Z,3.35
2019-05-28T01:27:40.920Z,3.08
2019-05-28T01:30:11.561Z,3.35
2019-05-28T01:32:40.890Z,3.30
2019-05-28T01:35:10.387Z,3.90
2019-05-28T01:37:40.015Z,3.08
2019-05-28T01:40:10.457Z,3.72
2019-05-28T01:42:39.782Z,3.27
2019-05-28T01:45:09.549Z,3.37
2019-05-28T01:47:38.896Z,2.60
2019-05-28T01:50:08.577Z,3.17
2019-05-28T01:52:38.479Z,3.05
2019-05-28T01:55:08.904Z,3.58
2019-05-28T01:57:38.343Z,3.37
2019-05-28T02:00:08.022Z,2.95
2019-05-28T02:02:37.594Z,3.15
2019-05-28T02:05:08.087Z,3.60
2019-05-28T02:07:37.406Z,3.10
2019-05-28T02:10:07.880Z,2.67
2019-05-28T02:12:37.286Z,3.98
2019-05-28T02:15:08.560Z,3.17
2019-05-28T02:17:37.956Z,3.55
2019-05-28T02:20:09.315Z,3.17
2019-05-28T02:22:39.672Z,3.55
2019-05-28T02:25:10.279Z,3.10
2019-05-28T02:27:39.646Z,3.40
2019-05-28T02:30:11.283Z,3.37
2019-05-28T02:32:41.813Z,3.10
2019-05-28T02:35:11.892Z,3.22
2019-05-28T02:37:41.237Z,3.52
2019-05-28T02:40:11.001Z,2.95
2019-05-28T02:42:40.341Z,3.40
2019-05-28T02:45:10.900Z,3.10
2019-05-28T02:47:40.310Z,2.98
2019-05-28T02:50:11.088Z,3.10
2019-05-28T02:52:42.094Z,3.12
2019-05-28T02:55:12.360Z,2.80
2019-05-28T02:57:43.057Z,3.17
2019-05-28T03:00:17.147Z,3.95
2019-05-28T03:02:49.524Z,2.95
2019-05-28T03:05:19.449Z,2.95
2019-05-28T03:07:50.956Z,2.75
2019-05-28T03:11:00.068Z,3.35
2019-05-28T03:13:06.288Z,3.15
2019-05-28T03:15:38.704Z,3.33
2019-05-28T03:18:11.132Z,3.05
2019-05-28T03:20:42.780Z,3.65
2019-05-28T03:23:13.263Z,3.87
2019-05-28T03:25:42.566Z,3.67
2019-05-28T03:28:11.960Z,4.08
2019-05-28T03:30:41.358Z,3.45
2019-05-28T03:33:10.686Z,3.90
2019-05-28T03:35:42.298Z,4.12
2019-05-28T03:38:12.574Z,3.87
2019-05-28T03:40:47.004Z,4.42
2019-05-28T03:43:16.385Z,4.70
2019-05-28T03:45:46.264Z,4.42
2019-05-28T03:48:16.561Z,5.50
2019-05-28T03:50:45.896Z,6.33
2019-05-28T03:53:15.234Z,6.85
2019-05-28T03:55:45.702Z,8.83
2019-05-28T03:58:15.338Z,14.00
2019-05-28T04:00:44.706Z,12.00
2019-05-28T04:03:14.037Z,10.72
2019-05-28T04:05:43.644Z,10.18
2019-05-28T04:08:13.150Z,10.00
2019-05-28T04:10:42.512Z,9.05
2019-05-28T04:13:12.099Z,6.30
2019-05-28T04:15:41.438Z,5.90
2019-05-28T04:18:10.809Z,5.17
2019-05-28T04:20:40.185Z,5.33
2019-05-28T04:23:15.087Z,5.00
2019-05-28T04:25:46.836Z,4.87
2019-05-28T04:28:16.471Z,4.75
2019-05-28T04:30:45.815Z,4.65
2019-05-28T04:33:15.214Z,4.15
2019-05-28T04:35:44.479Z,5.58
2019-05-28T04:38:13.833Z,4.60
2019-05-28T04:40:43.166Z,4.80
2019-05-28T04:43:13.959Z,5.17
2019-05-28T04:45:43.304Z,4.67
2019-05-28T04:48:12.923Z,4.53
2019-05-28T04:50:42.255Z,5.17
2019-05-28T04:53:11.610Z,5.50
2019-05-28T04:55:41.918Z,5.00
2019-05-28T04:58:11.244Z,4.92
2019-05-28T05:00:40.868Z,5.10
2019-05-28T05:03:10.199Z,5.03
2019-05-28T05:05:39.547Z,5.33
2019-05-28T05:08:08.876Z,4.72
2019-05-28T05:10:38.219Z,4.80
2019-05-28T05:13:07.550Z,4.53
2019-05-28T05:15:37.287Z,4.62
2019-05-28T05:18:07.619Z,5.00
2019-05-28T05:20:37.220Z,5.20
2019-05-28T05:23:06.558Z,5.40
2019-05-28T05:25:35.901Z,5.10
2019-05-28T05:28:05.243Z,8.95
2019-05-28T05:30:34.580Z,12.43
2019-05-28T05:33:19.129Z,15.48
2019-05-28T05:35:34.960Z,15.80
2019-05-28T05:38:04.311Z,16.17
2019-05-28T05:40:33.658Z,16.37
2019-05-28T05:43:03.007Z,17.85
2019-05-28T05:45:32.346Z,16.12
2019-05-28T05:48:01.685Z,16.65
2019-05-28T05:50:31.038Z,12.80
2019-05-28T05:53:00.366Z,12.43
2019-05-28T05:55:30.030Z,11.70
2019-05-28T05:57:59.358Z,10.60
2019-05-28T06:00:28.703Z,9.30
2019-05-28T06:02:58.044Z,8.70
2019-05-28T06:05:27.462Z,10.50
2019-05-28T06:07:56.825Z,10.05
2019-05-28T06:10:26.160Z,8.38
2019-05-28T06:12:55.488Z,7.05
2019-05-28T06:15:24.839Z,5.72
2019-05-28T06:17:54.164Z,6.47
2019-05-28T06:20:23.573Z,6.03
2019-05-28T06:22:52.904Z,5.78
2019-05-28T06:25:22.310Z,6.60
2019-05-28T06:43:08.128Z,6.55
2019-05-28T06:45:37.718Z,6.90
2019-05-28T06:48:07.051Z,6.58
2019-05-28T06:50:36.386Z,6.45
2019-05-28T06:53:05.723Z,6.72
2019-05-28T06:55:35.074Z,6.67
2019-05-28T06:58:04.391Z,6.20
2019-05-28T07:00:34.032Z,6.42
2019-05-28T07:03:03.662Z,7.47
2019-05-28T07:05:33.574Z,7.20
2019-05-28T07:08:03.011Z,7.40
2019-05-28T07:10:33.290Z,8.20
2019-05-28T07:13:02.693Z,7.78
2019-05-28T07:15:32.999Z,8.18
2019-05-28T07:18:02.359Z,9.35
2019-05-28T07:20:31.709Z,9.60
2019-05-28T07:23:01.042Z,9.23
2019-05-28T07:25:30.374Z,9.70
2019-05-28T07:28:10.243Z,8.95
2019-05-28T07:30:30.743Z,9.63
2019-05-28T07:33:00.485Z,9.38
2019-05-28T07:35:44.568Z,9.50
2019-05-28T07:38:01.070Z,9.90
2019-05-28T07:40:32.267Z,10.03
2019-05-28T07:43:01.739Z,9.80
2019-05-28T07:45:31.076Z,9.35
2019-05-28T07:48:00.498Z,9.28
2019-05-28T07:50:30.063Z,9.75
2019-05-28T07:52:59.411Z,10.28
2019-05-28T07:55:28.751Z,8.55
2019-05-28T07:57:58.113Z,9.20
2019-05-28T08:00:38.585Z,8.55
2019-05-28T08:03:08.569Z,9.38
2019-05-28T08:05:37.976Z,7.90
2019-05-28T08:08:08.876Z,9.03
2019-05-28T08:10:38.285Z,8.85
2019-05-28T08:13:07.677Z,8.05
2019-05-28T08:15:37.242Z,9.08
2019-05-28T08:18:06.579Z,8.98
2019-05-28T08:20:35.910Z,8.55
2019-05-28T08:23:05.251Z,9.13
2019-05-28T08:25:46.891Z,9.00
2019-05-28T08:28:19.403Z,8.48
2019-05-28T08:30:37.632Z,10.00
2019-05-28T08:33:07.198Z,9.30
2019-05-28T08:35:36.528Z,9.50
2019-05-28T08:38:06.164Z,9.98
2019-05-28T08:40:35.495Z,9.93
2019-05-28T08:43:04.842Z,9.18
2019-05-28T08:45:34.196Z,9.30
2019-05-28T08:48:03.535Z,9.05
2019-05-28T08:50:34.978Z,8.28
2019-05-28T08:53:03.935Z,8.98
2019-05-28T08:55:33.415Z,7.62
2019-05-28T08:58:02.946Z,5.92
2019-05-28T09:00:38.292Z,5.35
2019-05-28T09:03:07.752Z,4.40
2019-05-28T09:05:37.191Z,4.72
2019-05-28T09:08:06.618Z,4.58
2019-05-28T09:10:36.046Z,4.85
2019-05-28T09:13:05.788Z,4.90
2019-05-28T09:15:35.451Z,5.00
2019-05-28T09:18:05.260Z,5.17
2019-05-28T09:20:34.625Z,5.35
2019-05-28T09:23:03.969Z,5.55
2019-05-28T09:25:33.552Z,5.67
2019-05-28T09:28:02.956Z,6.15
2019-05-28T09:30:32.296Z,6.15
2019-05-28T09:33:01.647Z,6.80
2019-05-28T09:35:44.129Z,7.03
2019-05-28T09:38:02.367Z,6.12
2019-05-28T09:40:48.580Z,6.15
2019-05-28T09:43:02.890Z,6.05
2019-05-28T09:45:32.222Z,6.15
2019-05-28T09:48:01.575Z,5.87
2019-05-28T09:50:31.450Z,5.95
2019-05-28T09:53:00.733Z,5.75
2019-05-28T09:55:30.077Z,5.55
2019-05-28T09:57:59.400Z,5.12
2019-05-28T10:00:29.333Z,4.95
2019-05-28T10:02:58.659Z,5.40
2019-05-28T10:05:27.996Z,5.83
2019-05-28T10:07:57.546Z,7.05
2019-05-28T10:10:26.948Z,6.50
2019-05-28T10:12:56.233Z,6.72
2019-05-28T10:15:26.046Z,7.42
2019-05-28T10:17:55.377Z,8.03
2019-05-28T10:20:25.167Z,9.08
2019-05-28T10:22:54.567Z,8.90
2019-05-28T10:25:24.134Z,9.00
2019-05-28T10:28:00.860Z,9.38
2019-05-28T10:30:25.248Z,9.75
2019-05-28T10:32:55.014Z,9.35
2019-05-28T10:35:24.884Z,7.95
2019-05-28T10:37:54.280Z,8.48
2019-05-28T10:40:23.847Z,8.73
2019-05-28T10:42:53.242Z,8.33
2019-05-28T10:45:22.730Z,9.10
2019-05-28T10:47:53.244Z,7.83
2019-05-28T10:50:23.368Z,8.43
2019-05-28T10:52:52.704Z,8.80
2019-05-28T10:55:22.045Z,8.80
2019-05-28T10:57:51.373Z,8.70
2019-05-28T11:00:21.564Z,8.70
2019-05-28T11:02:51.270Z,8.98
2019-05-28T11:05:21.853Z,8.43
2019-05-28T11:07:51.499Z,8.28
2019-05-28T11:10:24.385Z,8.73
2019-05-28T11:12:53.402Z,10.25
2019-05-28T11:15:25.697Z,10.35
2019-05-28T11:17:55.036Z,10.10
2019-05-28T11:20:25.013Z,8.93
2019-05-28T11:22:54.642Z,10.90
2019-05-28T11:25:24.280Z,10.68
2019-05-28T11:27:53.611Z,9.93
2019-05-28T11:30:23.599Z,10.38
2019-05-28T11:32:53.291Z,9.55
2019-05-28T11:35:22.886Z,9.28
2019-05-28T11:37:52.204Z,8.85
2019-05-28T11:40:22.107Z,8.30
2019-05-28T11:42:51.459Z,7.28
2019-05-28T11:45:21.673Z,7.20
2019-05-28T11:47:51.509Z,7.70
2019-05-28T11:50:20.987Z,6.53
2019-05-28T11:52:50.309Z,5.00
2019-05-28T11:55:20.316Z,4.40
2019-05-28T11:57:49.667Z,4.62
2019-05-28T12:00:19.625Z,4.33
2019-05-28T12:02:49.308Z,3.95
2019-05-28T12:05:20.262Z,3.77
2019-05-28T12:07:51.783Z,4.80
2019-05-28T12:10:22.490Z,3.95
2019-05-28T12:12:51.832Z,4.55
2019-05-28T12:15:21.830Z,4.72
2019-05-28T12:17:51.200Z,5.55
2019-05-28T12:20:21.499Z,6.37
2019-05-28T12:23:08.976Z,3.35
2019-05-28T12:25:22.445Z,2.10
2019-05-28T12:27:52.049Z,1.98
2019-05-28T12:30:22.007Z,1.55
2019-05-28T12:32:51.335Z,1.70
2019-05-28T12:35:29.401Z,2.25
2019-05-28T12:37:53.040Z,1.20
2019-05-28T12:40:23.249Z,1.70
2019-05-28T12:42:52.579Z,2.20
2019-05-28T12:45:34.955Z,2.00
2019-05-28T12:48:09.565Z,2.20
2019-05-28T12:50:24.793Z,2.10
2019-05-28T12:52:54.159Z,2.22
2019-05-28T12:55:23.746Z,2.35
2019-05-28T12:57:53.088Z,2.00
2019-05-28T13:00:24.355Z,1.40
2019-05-28T13:02:53.684Z,1.52
2019-05-28T13:05:26.503Z,1.85
2019-05-28T13:08:08.466Z,1.57
2019-05-28T13:10:26.868Z,1.40
2019-05-28T13:12:56.203Z,1.12
2019-05-28T13:15:25.717Z,1.30
2019-05-28T13:17:55.070Z,1.75
2019-05-28T13:20:24.465Z,1.87
2019-05-28T13:22:53.802Z,1.90
2019-05-28T13:25:23.126Z,2.27
2019-05-28T13:27:52.535Z,2.65
2019-05-28T13:30:22.200Z,2.45
2019-05-28T13:32:51.801Z,2.42
2019-05-28T13:35:21.360Z,2.40
2019-05-28T13:37:50.809Z,3.30
2019-05-28T13:40:21.892Z,3.30
2019-05-28T13:42:51.829Z,3.05
2019-05-28T13:45:22.362Z,3.58
2019-05-28T13:47:51.701Z,3.75
2019-05-28T13:50:21.663Z,3.37
2019-05-28T13:52:51.382Z,3.62
2019-05-28T13:55:20.772Z,3.80
2019-05-28T13:57:50.096Z,3.62
2019-05-28T14:00:22.003Z,4.30
2019-05-28T14:02:51.336Z,5.17
2019-05-28T14:05:20.840Z,5.08
2019-05-28T14:07:50.509Z,5.10
2019-05-28T14:10:20.146Z,5.33
2019-05-28T14:12:49.533Z,5.15
2019-05-28T14:15:19.727Z,5.30
2019-05-28T14:17:49.090Z,5.42
2019-05-28T14:20:20.901Z,5.83
2019-05-28T14:22:50.255Z,5.87
2019-05-28T14:25:19.669Z,8.40
2019-05-28T14:27:48.995Z,6.97
2019-05-28T14:30:20.053Z,5.95
2019-05-28T14:32:49.620Z,5.17
2019-05-28T14:35:19.025Z,4.78
2019-05-28T14:37:48.636Z,3.70
2019-05-28T14:40:18.205Z,3.37
2019-05-28T14:42:47.533Z,2.90
2019-05-28T14:45:17.638Z,3.10
2019-05-28T14:47:46.999Z,3.47
2019-05-28T14:50:17.044Z,3.77
2019-05-28T14:52:46.375Z,3.77
2019-05-28T14:55:17.457Z,4.35
2019-05-28T14:57:46.769Z,4.58
2019-05-28T15:00:18.618Z,5.20
2019-05-28T15:02:47.970Z,4.15
2019-05-28T15:05:17.753Z,3.77
2019-05-28T15:07:47.089Z,3.70
2019-05-28T15:10:17.471Z,4.37
2019-05-28T15:12:46.816Z,5.35
2019-05-28T15:15:34.014Z,6.92
2019-05-28T15:17:48.044Z,6.62
2019-05-28T15:20:19.188Z,6.10
2019-05-28T15:22:48.590Z,5.42
2019-05-28T15:25:18.271Z,5.90
2019-05-28T15:27:47.600Z,5.50
2019-05-28T15:30:18.802Z,5.55
2019-05-28T15:32:48.204Z,5.15
2019-05-28T15:35:17.669Z,5.40
2019-05-28T15:37:47.233Z,5.22
2019-05-28T15:40:16.912Z,5.17
2019-05-28T15:42:46.245Z,4.92
2019-05-28T15:45:15.934Z,4.80
2019-05-28T15:47:45.371Z,4.50
2019-05-28T15:50:15.203Z,4.55
2019-05-28T15:52:44.530Z,4.40
2019-05-28T15:55:14.530Z,3.87
2019-05-28T15:57:44.819Z,4.20
2019-05-28T16:00:23.393Z,2.70
2019-05-28T16:02:53.262Z,2.45
2019-05-28T16:05:22.596Z,2.60
2019-05-28T16:07:52.054Z,2.20
2019-05-28T16:10:21.858Z,2.42
2019-05-28T16:12:51.240Z,2.30
2019-05-28T16:15:20.939Z,2.40
2019-05-28T16:17:50.264Z,2.47
2019-05-28T16:20:21.076Z,2.40
2019-05-28T16:22:50.459Z,2.60
2019-05-28T16:25:20.087Z,2.52
2019-05-28T16:27:49.426Z,2.70
2019-05-28T16:30:19.105Z,2.55
2019-05-28T16:32:48.472Z,2.33
2019-05-28T16:35:20.048Z,2.55
2019-05-28T16:37:50.385Z,2.92
2019-05-28T16:40:20.166Z,2.47
2019-05-28T16:42:49.585Z,2.85
2019-05-28T16:45:19.630Z,3.30
2019-05-28T16:47:48.975Z,3.00
2019-05-28T16:50:18.904Z,2.90
2019-05-28T16:52:48.483Z,3.02
2019-05-28T16:55:18.061Z,3.50
2019-05-28T16:57:47.461Z,3.22
2019-05-28T17:00:17.330Z,3.52
2019-05-28T17:02:46.674Z,5.25
2019-05-28T17:05:17.438Z,3.47
2019-05-28T17:07:46.775Z,5.42
2019-05-28T17:10:31.769Z,3.62
2019-05-28T17:12:47.498Z,4.85
2019-05-28T17:15:17.383Z,3.72
2019-05-28T17:17:47.124Z,3.85
2019-05-28T17:20:17.994Z,3.33
2019-05-28T17:22:47.598Z,4.42
2019-05-28T17:25:18.031Z,4.25
2019-05-28T17:27:47.676Z,4.95
2019-05-28T17:30:23.594Z,4.22
2019-05-28T17:32:49.682Z,3.80
2019-05-28T17:35:19.222Z,3.52
2019-05-28T17:37:49.653Z,3.80
2019-05-28T17:40:22.477Z,3.85
2019-05-28T17:42:50.263Z,3.35
2019-05-28T17:45:20.066Z,3.22
2019-05-28T17:47:49.416Z,3.80
2019-05-28T17:50:19.871Z,3.25
2019-05-28T17:52:51.601Z,4.37
2019-05-28T17:55:20.238Z,3.33
2019-05-28T17:57:49.632Z,4.30
2019-05-28T18:00:18.978Z,3.70
2019-05-28T18:02:48.777Z,3.83
2019-05-28T18:05:18.618Z,3.58
2019-05-28T18:07:48.116Z,3.65
2019-05-28T18:10:17.933Z,3.95
2019-05-28T18:12:47.345Z,3.75
2019-05-28T18:15:17.007Z,4.20
2019-05-28T18:17:46.385Z,3.60
2019-05-28T18:20:16.251Z,3.98
2019-05-28T18:22:45.613Z,4.22
2019-05-28T18:25:15.204Z,4.08
2019-05-28T18:27:45.506Z,3.80
2019-05-28T18:30:16.102Z,4.17
2019-05-28T18:32:45.426Z,4.17
2019-05-28T18:35:14.990Z,4.15
2019-05-28T18:37:44.736Z,4.30
2019-05-28T18:40:14.420Z,4.40
2019-05-28T18:42:43.989Z,4.20
2019-05-28T18:45:13.758Z,4.55
2019-05-28T18:47:43.092Z,4.08
2019-05-28T18:50:15.040Z,4.10
2019-05-28T18:52:44.360Z,4.20
2019-05-28T18:55:13.829Z,4.30
2019-05-28T18:57:43.226Z,4.30
2019-05-28T19:00:13.590Z,3.42
2019-05-28T19:02:43.184Z,3.08
2019-05-28T19:05:13.069Z,3.20
2019-05-28T19:07:42.665Z,3.27
2019-05-28T19:10:12.068Z,3.00
2019-05-28T19:12:41.393Z,3.10
2019-05-28T19:15:11.014Z,3.42
2019-05-28T19:17:40.398Z,2.60
2019-05-28T19:20:10.190Z,2.60
2019-05-28T19:22:39.756Z,3.30
2019-05-28T19:25:10.594Z,3.12
2019-05-28T19:27:40.147Z,3.25
2019-05-28T19:30:10.481Z,3.62
2019-05-28T19:32:40.155Z,3.08
2019-05-28T19:35:10.814Z,3.70
2019-05-28T19:37:40.990Z,3.83
2019-05-28T19:40:11.355Z,3.55
2019-05-28T19:42:40.710Z,4.37
2019-05-28T19:45:10.193Z,4.30
2019-05-28T19:47:39.765Z,3.80
2019-05-28T19:50:09.544Z,3.77
2019-05-28T19:52:39.127Z,4.08
2019-05-28T19:55:08.779Z,4.22
2019-05-28T19:57:38.341Z,4.40
2019-05-28T20:00:08.892Z,4.08
2019-05-28T20:02:39.657Z,3.98
2019-05-28T20:05:09.417Z,4.75
2019-05-28T20:07:38.917Z,4.47
2019-05-28T20:10:08.856Z,5.00
2019-05-28T20:12:38.270Z,5.60
2019-05-28T20:15:12.551Z,5.28
2019-05-28T20:17:41.876Z,5.33
2019-05-28T20:20:11.738Z,5.22
2019-05-28T20:22:41.076Z,4.83
2019-05-28T20:25:10.924Z,4.70
2019-05-28T20:27:40.294Z,4.50
2019-05-28T20:30:11.453Z,4.12
2019-05-28T20:32:41.065Z,4.22
2019-05-28T20:35:11.171Z,3.95
2019-05-28T20:37:40.713Z,3.90
2019-05-28T20:40:10.481Z,4.28
2019-05-28T20:42:39.812Z,4.62
2019-05-28T20:45:11.921Z,4.05
2019-05-28T20:47:40.811Z,3.98
2019-05-28T20:50:11.945Z,3.67
2019-05-28T20:52:42.283Z,3.62
2019-05-28T20:55:12.265Z,3.90
2019-05-28T20:57:41.602Z,3.70
2019-05-28T21:00:12.077Z,3.35
2019-05-28T21:02:41.412Z,4.00
2019-05-28T21:05:12.036Z,3.65
2019-05-28T21:07:41.375Z,3.60
2019-05-28T21:10:11.033Z,3.75
2019-05-28T21:12:44.421Z,3.22
2019-05-28T21:15:15.844Z,3.85
2019-05-28T21:17:43.575Z,3.60
2019-05-28T21:20:13.737Z,3.25
2019-05-28T21:22:43.135Z,2.92
2019-05-28T21:25:13.202Z,3.27
2019-05-28T21:27:42.524Z,3.00
2019-05-28T21:30:12.202Z,3.27
2019-05-28T21:32:41.853Z,2.90
2019-05-28T21:35:11.413Z,2.90
2019-05-28T21:37:40.762Z,2.65
2019-05-28T21:40:10.524Z,3.17
2019-05-28T21:42:39.860Z,3.30
2019-05-28T21:45:09.853Z,2.70
2019-05-28T21:47:39.179Z,3.17
2019-05-28T21:50:10.146Z,2.92
2019-05-28T21:52:39.704Z,3.40
2019-05-28T21:55:09.471Z,3.70
2019-05-28T21:57:38.796Z,3.30
2019-05-28T22:00:17.965Z,4.08
2019-05-28T22:02:48.915Z,3.42
2019-05-28T22:05:18.415Z,3.60
2019-05-28T22:07:48.099Z,3.47
2019-05-28T22:10:17.494Z,3.58
2019-05-28T22:12:47.790Z,3.62
2019-05-28T22:15:17.497Z,3.52
2019-05-28T22:17:47.067Z,3.58
2019-05-28T22:20:16.641Z,3.15
2019-05-28T22:22:46.943Z,3.08
2019-05-28T22:25:16.417Z,3.10
2019-05-28T22:27:46.720Z,3.12
2019-05-28T22:30:16.801Z,3.15
2019-05-28T22:32:46.193Z,3.58
2019-05-28T22:35:15.799Z,3.47
2019-05-28T22:37:45.141Z,3.15
2019-05-28T22:40:15.417Z,3.22
2019-05-28T22:42:44.740Z,3.40
2019-05-28T22:45:14.796Z,2.90
2019-05-28T22:47:44.134Z,3.10
2019-05-28T22:50:22.571Z,3.00
2019-05-28T22:52:45.035Z,2.50
2019-05-28T22:55:14.935Z,2.62
2019-05-28T22:57:44.273Z,3.10
2019-05-28T23:00:14.960Z,3.08
2019-05-28T23:02:44.261Z,2.80
2019-05-28T23:05:14.426Z,2.72
2019-05-28T23:07:43.761Z,2.55
2019-05-28T23:10:13.162Z,2.98
2019-05-28T23:12:42.730Z,2.72
2019-05-28T23:15:12.438Z,2.77
2019-05-28T23:17:41.769Z,2.98
2019-05-28T23:20:12.199Z,2.65
2019-05-28T23:22:41.524Z,2.90
2019-05-28T23:25:11.819Z,3.05
2019-05-28T23:27:41.102Z,2.55
2019-05-28T23:30:23.478Z,3.08
2019-05-28T23:32:41.641Z,3.17
2019-05-28T23:35:12.713Z,3.25
2019-05-28T23:37:42.129Z,3.20
2019-05-28T23:40:11.892Z,3.05
2019-05-28T23:42:41.223Z,2.85
2019-05-28T23:45:11.813Z,2.80
2019-05-28T23:47:41.194Z,3.02
2019-05-28T23:50:14.812Z,3.35
2019-05-28T23:52:42.166Z,3.08
2019-05-28T23:55:11.896Z,2.83
2019-05-28T23:57:41.229Z,2.98
